首页
METAR-TAF:

METAR-TAF

机场 :

大加那利岛, 西班牙

大加那利机场

纬度: 27-56N, 经度: 015-23W, 海拔: 23米

当前天气观测

该预报发布于11分钟前的18:00 UTC
风速20节,风向
温度 21°C
湿度 60%
气压 1020 hPa
能见度10公里或以上
少量云层高于3000英尺
散云层高于3500英尺

METAR: GCLP 241800Z 36020KT 9999 FEW030 SCT035 21/13 Q1020 NOSIG

时间: 19:11 (18:11 UTC)

预报

该预报发布于4小时和11分钟前的14:00 UTC
预报有效从24日的 15点(UTC)到 25日的 15点(UTC)
风速18节,风向
能见度10公里或以上
少量云层高于3000英尺
散云层高于4000英尺
几率 40% :
短暂存在
从 24日的 15点(UTC)到 24日的 20点(UTC)
风速18节,风向,有时为28节阵风
短暂存在
从 25日的 08点(UTC)到 25日的 15点(UTC)
风速24节,风向,有时为34节阵风

TAF: GCLP 241400Z 2415/2515 35018KT 9999 FEW030 SCT040 TX23/2514Z TN17/2505Z PROB40 TEMPO 2415/2420 35018G28KT TEMPO 2508/2515 01024G34KT

超过4000个机场的气象观测和天气预报(METAR&TAF报告)。

可查询的气象台以黄色和红色小点在地图上表示。

将鼠标移到小点上方,可查看气象台名称。

然后点击查看天气观测和预报。

如需切换地图:点击带黑十字的绿色按钮放大地图;点击带横线的绿色按钮缩小地图;或者点击绿色箭头查看邻近地区的地图。


METAR-TAF: